Appleby, South Dakota
Current Conditions -  °F | °C
As of 10:53 AM on Friday 24 Oct 2014 (Local Time) from KATY Reporting Station
Clear Clear  
Wind Chill: 54°   Ceiling: Unl
Heat Index: 54°   Visibility: 10mi
Dew Point: 49°   Wind: 3mph
Humidity: 83%   Direction: 320°NW
Pressure: 29.89"   Gusts: NA
Location:  44.9156°N, 97.1699°W
Report Text: KATY 241553Z AUTO 32003KT 10SM CLR 12/09 A2989 RMK AO2 SLP127 T01220094
Loading
Personal Weather Stations






























Interactive Weather Map New forecast layout! Learn more

10-Day Weather Forecast

Advertisements
Track Severe Weather on mobile